createdAt,value
2022-12-22T00:00:12.375Z,30.23
2022-12-22T00:02:57.937Z,38.03
2022-12-22T00:05:43.257Z,34.70
2022-12-22T00:08:28.918Z,30.00
2022-12-22T00:11:15.344Z,24.33
2022-12-22T00:14:02.453Z,30.33
2022-12-22T00:16:55.029Z,26.73
2022-12-22T00:19:40.953Z,25.07
2022-12-22T00:22:35.601Z,40.03
2022-12-22T00:25:20.790Z,31.13
2022-12-22T00:28:06.166Z,30.43
2022-12-22T00:30:51.360Z,29.50
2022-12-22T00:33:37.934Z,26.63
2022-12-22T00:36:25.209Z,26.53
2022-12-22T00:39:10.489Z,27.23
2022-12-22T00:41:55.873Z,30.70
2022-12-22T00:44:41.332Z,27.03
2022-12-22T00:47:32.521Z,26.73
2022-12-22T00:50:18.129Z,25.67
2022-12-22T00:53:03.548Z,31.30
2022-12-22T00:55:49.937Z,28.80
2022-12-22T00:58:36.640Z,33.47
2022-12-22T01:01:22.168Z,30.30
2022-12-22T01:04:07.517Z,31.33
2022-12-22T01:06:54.154Z,32.00
2022-12-22T01:09:40.451Z,35.60
2022-12-22T01:12:34.839Z,32.20
2022-12-22T01:15:19.901Z,33.20
2022-12-22T01:18:05.413Z,33.80
2022-12-22T01:20:50.850Z,22.33
2022-12-22T01:23:36.200Z,29.07
2022-12-22T01:26:21.709Z,32.63
2022-12-22T01:29:07.088Z,20.80
2022-12-22T01:31:52.366Z,27.57
2022-12-22T01:34:37.548Z,34.30
2022-12-22T01:37:22.849Z,25.47
2022-12-22T01:40:08.457Z,21.77
2022-12-22T01:42:53.864Z,25.47
2022-12-22T01:45:52.800Z,29.97
2022-12-22T01:48:44.314Z,26.20
2022-12-22T01:51:32.721Z,29.00
2022-12-22T01:54:18.293Z,28.50
2022-12-22T01:57:05.057Z,30.10
2022-12-22T01:59:50.295Z,58.17
2022-12-22T02:02:36.778Z,39.73
2022-12-22T02:05:23.743Z,37.50
2022-12-22T02:08:39.369Z,31.73
2022-12-22T02:11:35.781Z,32.07
2022-12-22T02:14:35.566Z,30.80
2022-12-22T02:17:44.132Z,27.80
2022-12-22T02:20:37.131Z,27.07
2022-12-22T02:23:45.565Z,32.93
2022-12-22T02:26:46.073Z,35.03
2022-12-22T02:29:38.380Z,28.07
2022-12-22T02:32:25.510Z,35.40
2022-12-22T02:35:10.659Z,25.70
2022-12-22T02:38:18.121Z,49.57
2022-12-22T02:41:25.649Z,38.50
2022-12-22T02:44:38.900Z,56.93
2022-12-22T02:47:32.320Z,45.60
2022-12-22T02:50:23.829Z,56.17
2022-12-22T02:53:09.441Z,52.40
2022-12-22T02:55:54.739Z,32.83
2022-12-22T02:58:39.905Z,38.10
2022-12-22T03:01:25.376Z,36.30
2022-12-22T03:04:10.805Z,27.30
2022-12-22T03:06:56.295Z,56.23
2022-12-22T03:09:41.702Z,58.07
2022-12-22T03:12:27.269Z,39.27
2022-12-22T03:15:12.446Z,30.83
2022-12-22T03:17:57.778Z,38.43
2022-12-22T03:20:43.344Z,31.23
2022-12-22T03:23:28.889Z,35.90
2022-12-22T03:25:55.501Z,68.47
2022-12-22T03:28:25.485Z,68.13
2022-12-22T03:30:59.755Z,45.27
2022-12-22T03:33:26.909Z,53.17
2022-12-22T03:35:53.783Z,42.57
2022-12-22T03:38:21.010Z,48.80
2022-12-22T03:40:47.938Z,51.47
2022-12-22T03:43:34.108Z,23.67
2022-12-22T03:46:10.098Z,71.87
2022-12-22T03:48:36.773Z,34.07
2022-12-22T03:51:03.547Z,30.00
2022-12-22T03:53:30.151Z,40.73
2022-12-22T03:55:57.366Z,24.10
2022-12-22T03:58:25.118Z,45.73
2022-12-22T04:00:51.932Z,29.80
2022-12-22T04:03:18.762Z,24.23
2022-12-22T04:05:45.803Z,31.97
2022-12-22T04:08:12.468Z,26.40
2022-12-22T04:10:58.078Z,61.63
2022-12-22T04:13:24.705Z,42.13
2022-12-22T04:15:51.467Z,75.53
2022-12-22T04:18:18.160Z,65.90
2022-12-22T04:20:44.876Z,53.30
2022-12-22T04:23:11.624Z,53.70
2022-12-22T04:25:38.316Z,61.90
2022-12-22T04:28:05.010Z,33.17
2022-12-22T04:30:31.761Z,37.80
2022-12-22T04:32:58.445Z,35.77
2022-12-22T04:35:25.192Z,48.37
2022-12-22T04:37:51.884Z,43.00
2022-12-22T04:40:18.591Z,34.50
2022-12-22T04:42:45.278Z,29.67
2022-12-22T04:45:12.042Z,33.33
2022-12-22T04:47:38.872Z,25.87
2022-12-22T04:50:06.318Z,39.53
2022-12-22T04:52:32.998Z,30.27
2022-12-22T04:54:59.719Z,24.60
2022-12-22T04:57:26.430Z,20.90
2022-12-22T04:59:53.165Z,15.13
2022-12-22T05:02:20.030Z,25.87
2022-12-22T05:04:46.849Z,36.50
2022-12-22T05:07:13.581Z,45.53
2022-12-22T05:09:40.445Z,39.23
2022-12-22T05:12:27.096Z,35.17
2022-12-22T05:14:53.916Z,45.90
2022-12-22T05:17:20.709Z,56.40
2022-12-22T05:19:47.473Z,49.73
2022-12-22T05:22:14.102Z,85.73
2022-12-22T05:24:40.744Z,55.83
2022-12-22T05:27:07.331Z,51.83
2022-12-22T05:29:33.917Z,42.60
2022-12-22T05:32:00.499Z,35.40
2022-12-22T05:34:27.381Z,45.60
2022-12-22T05:36:54.009Z,53.47
2022-12-22T05:39:20.636Z,49.63
2022-12-22T05:41:47.208Z,60.87
2022-12-22T05:44:13.831Z,35.20
2022-12-22T05:46:40.488Z,40.27
2022-12-22T05:49:07.143Z,57.23
2022-12-22T05:51:33.704Z,30.53
2022-12-22T05:54:00.341Z,31.43
2022-12-22T05:56:26.965Z,24.63
2022-12-22T05:58:53.614Z,32.93
2022-12-22T06:01:20.315Z,27.57
2022-12-22T06:03:47.047Z,25.10
2022-12-22T06:06:13.872Z,29.20
2022-12-22T06:08:40.582Z,44.97
2022-12-22T06:11:07.150Z,61.27
2022-12-22T06:13:33.827Z,31.87
2022-12-22T06:16:00.623Z,27.47
2022-12-22T06:18:28.394Z,31.17
2022-12-22T06:20:55.059Z,28.93
2022-12-22T06:23:22.894Z,35.07
2022-12-22T06:26:02.230Z,34.80
2022-12-22T06:28:29.255Z,26.90
2022-12-22T06:30:56.098Z,26.70
2022-12-22T06:33:22.984Z,23.70
2022-12-22T06:35:53.889Z,24.20
2022-12-22T06:38:25.119Z,20.70
2022-12-22T06:40:51.828Z,21.33
2022-12-22T06:43:18.540Z,21.77
2022-12-22T06:45:45.733Z,15.67
2022-12-22T06:48:13.325Z,20.07
2022-12-22T06:50:40.648Z,18.33
2022-12-22T06:53:08.240Z,14.60
2022-12-22T06:55:35.111Z,18.40
2022-12-22T06:58:02.294Z,20.37
2022-12-22T07:00:29.271Z,17.03
2022-12-22T07:02:56.406Z,16.10
2022-12-22T07:05:24.039Z,21.00
2022-12-22T07:07:51.068Z,15.80
2022-12-22T07:10:17.852Z,12.93
2022-12-22T07:12:44.447Z,14.40
2022-12-22T07:15:11.311Z,17.00
2022-12-22T07:17:38.245Z,15.23
2022-12-22T07:20:05.365Z,14.00
2022-12-22T07:22:32.043Z,20.97
2022-12-22T07:24:58.981Z,26.93
2022-12-22T07:27:25.824Z,54.13
2022-12-22T07:29:52.575Z,20.80
2022-12-22T07:32:19.255Z,31.67
2022-12-22T07:34:45.989Z,30.37
2022-12-22T07:37:13.892Z,23.57
2022-12-22T07:39:41.073Z,42.97
2022-12-22T07:42:26.575Z,62.53
2022-12-22T07:44:53.479Z,44.27
2022-12-22T07:47:20.116Z,35.13
2022-12-22T07:50:05.160Z,52.63
2022-12-22T07:52:31.893Z,76.90
2022-12-22T07:54:58.654Z,89.47
2022-12-22T07:57:26.471Z,34.63
2022-12-22T07:59:54.005Z,26.70
2022-12-22T08:02:20.858Z,43.97
2022-12-22T08:04:47.798Z,24.20
2022-12-22T08:07:14.674Z,28.93
2022-12-22T08:09:41.388Z,19.10
2022-12-22T08:12:08.199Z,26.43
2022-12-22T08:14:34.971Z,17.60
2022-12-22T08:17:01.700Z,18.53
2022-12-22T08:19:28.672Z,21.70
2022-12-22T08:21:55.372Z,19.47
2022-12-22T08:24:22.227Z,24.83
2022-12-22T08:26:51.549Z,24.80
2022-12-22T08:29:22.696Z,13.57
2022-12-22T08:31:49.870Z,18.53
2022-12-22T08:34:17.032Z,15.50
2022-12-22T08:36:49.730Z,16.87
2022-12-22T08:39:17.587Z,18.83
2022-12-22T08:41:50.150Z,21.37
2022-12-22T08:44:28.046Z,34.83
2022-12-22T08:46:56.919Z,21.63
2022-12-22T08:49:24.627Z,14.87
2022-12-22T08:51:51.746Z,24.20
2022-12-22T08:54:18.847Z,19.93
2022-12-22T08:56:45.831Z,15.10
2022-12-22T08:59:13.173Z,14.90
2022-12-22T09:01:47.015Z,14.23
2022-12-22T09:04:17.834Z,18.37
2022-12-22T09:06:45.087Z,16.37
2022-12-22T09:09:13.158Z,19.30
2022-12-22T09:11:40.685Z,12.77
2022-12-22T09:14:08.899Z,12.57
2022-12-22T09:16:36.317Z,20.23
2022-12-22T09:19:03.884Z,20.57
2022-12-22T09:21:30.878Z,16.90
2022-12-22T09:23:58.449Z,21.10
2022-12-22T09:26:27.595Z,21.37
2022-12-22T09:28:55.391Z,18.03
2022-12-22T09:31:23.084Z,22.57
2022-12-22T09:33:49.967Z,26.70
2022-12-22T09:36:28.927Z,20.13
2022-12-22T09:38:55.666Z,17.53
2022-12-22T09:41:29.283Z,19.60
2022-12-22T09:43:56.622Z,15.33
2022-12-22T09:46:26.430Z,20.40
2022-12-22T09:48:54.270Z,21.43
2022-12-22T09:51:26.827Z,18.80
2022-12-22T09:53:59.312Z,24.40
2022-12-22T09:56:27.837Z,27.87
2022-12-22T09:58:54.588Z,16.80
2022-12-22T10:01:28.494Z,13.80
2022-12-22T10:04:01.501Z,18.40
2022-12-22T10:06:45.482Z,14.53
2022-12-22T10:09:46.325Z,28.60
2022-12-22T10:12:05.848Z,12.93
2022-12-22T10:14:38.019Z,12.50
2022-12-22T10:17:25.295Z,12.73
2022-12-22T10:19:54.637Z,11.10
2022-12-22T10:22:36.718Z,10.60
2022-12-22T10:25:06.122Z,5.83
2022-12-22T10:27:37.287Z,12.97
2022-12-22T10:30:25.346Z,11.27
2022-12-22T10:33:11.092Z,15.20
2022-12-22T10:35:50.983Z,12.40
2022-12-22T10:38:54.242Z,12.20
2022-12-22T10:41:22.800Z,7.60
2022-12-22T10:43:55.496Z,10.63
2022-12-22T10:46:39.286Z,9.13
2022-12-22T10:49:12.724Z,8.17
2022-12-22T10:51:41.146Z,7.00
2022-12-22T10:54:07.989Z,14.23
2022-12-22T10:56:35.172Z,7.97
2022-12-22T10:59:01.868Z,8.83
2022-12-22T11:01:36.287Z,7.17
2022-12-22T11:04:25.032Z,9.17
2022-12-22T11:06:53.640Z,9.40
2022-12-22T11:09:35.955Z,6.80
2022-12-22T11:12:08.515Z,9.07
2022-12-22T11:14:49.146Z,6.90
2022-12-22T11:17:30.676Z,5.83
2022-12-22T11:20:35.014Z,11.70
2022-12-22T11:23:23.329Z,11.43
2022-12-22T11:26:16.247Z,21.50
2022-12-22T11:28:48.576Z,8.63
2022-12-22T11:31:23.561Z,8.13
2022-12-22T11:34:21.196Z,10.00
2022-12-22T11:37:10.155Z,10.20
2022-12-22T11:39:59.335Z,13.17
2022-12-22T11:43:04.118Z,9.53
2022-12-22T11:46:23.430Z,10.40
2022-12-22T11:49:10.268Z,13.30
2022-12-22T11:51:50.925Z,18.30
2022-12-22T11:54:50.255Z,14.93
2022-12-22T11:57:37.306Z,10.37
2022-12-22T12:00:14.952Z,14.53
2022-12-22T12:02:49.339Z,14.47
2022-12-22T12:05:25.245Z,11.40
2022-12-22T12:07:56.394Z,12.77
2022-12-22T12:10:35.536Z,13.70
2022-12-22T12:13:31.601Z,12.80
2022-12-22T12:16:19.928Z,17.63
2022-12-22T12:18:57.552Z,21.63
2022-12-22T12:21:50.462Z,12.93
2022-12-22T12:24:29.686Z,14.93
2022-12-22T12:27:14.775Z,10.60
2022-12-22T12:30:28.571Z,11.23
2022-12-22T12:33:03.993Z,10.17
2022-12-22T12:35:49.211Z,8.80
2022-12-22T12:41:25.156Z,11.40
2022-12-22T12:43:54.574Z,10.30
2022-12-22T12:46:54.046Z,13.80
2022-12-22T12:49:38.940Z,10.50
2022-12-22T12:52:09.957Z,9.90
2022-12-22T12:54:39.167Z,12.33
2022-12-22T12:57:25.821Z,10.47
2022-12-22T12:59:55.857Z,10.47
2022-12-22T13:02:29.098Z,11.83
2022-12-22T13:05:11.693Z,13.93
2022-12-22T13:08:16.225Z,11.43
2022-12-22T13:10:47.468Z,15.77
2022-12-22T13:13:34.935Z,16.27
2022-12-22T13:16:07.600Z,12.80
2022-12-22T13:18:34.305Z,12.77
2022-12-22T13:24:25.238Z,10.30
2022-12-22T13:26:55.314Z,13.33
2022-12-22T13:29:25.387Z,14.57
2022-12-22T13:31:56.493Z,14.27
2022-12-22T13:34:46.288Z,19.70
2022-12-22T13:37:25.374Z,14.40
2022-12-22T13:40:34.172Z,14.27
2022-12-22T13:43:17.927Z,11.37
2022-12-22T13:45:47.154Z,13.97
2022-12-22T13:48:22.460Z,14.93
2022-12-22T13:50:52.280Z,12.40
2022-12-22T13:54:07.300Z,14.60
2022-12-22T13:56:16.751Z,13.73
2022-12-22T13:58:47.659Z,13.00
2022-12-22T14:01:17.498Z,14.07
2022-12-22T14:04:02.209Z,10.33
2022-12-22T14:06:37.686Z,14.53
2022-12-22T14:09:24.659Z,15.17
2022-12-22T14:11:55.385Z,14.80
2022-12-22T14:14:38.757Z,18.27
2022-12-22T14:17:34.241Z,17.20
2022-12-22T14:20:09.120Z,16.30
2022-12-22T14:22:43.618Z,18.57
2022-12-22T14:25:20.501Z,13.43
2022-12-22T14:27:56.014Z,12.53
2022-12-22T14:30:36.191Z,16.00
2022-12-22T14:33:23.646Z,14.43
2022-12-22T14:35:50.441Z,14.93
2022-12-22T14:38:21.492Z,16.00
2022-12-22T14:40:52.639Z,17.07
2022-12-22T14:43:26.960Z,13.40
2022-12-22T14:46:06.469Z,18.67
2022-12-22T14:48:46.365Z,21.27
2022-12-22T14:51:17.779Z,15.73
2022-12-22T14:53:50.777Z,12.60
2022-12-22T14:56:20.242Z,18.90
2022-12-22T14:58:48.238Z,13.07
2022-12-22T15:01:25.209Z,20.57
2022-12-22T15:04:22.497Z,27.07
2022-12-22T15:06:49.480Z,34.50
2022-12-22T15:09:16.158Z,30.50
2022-12-22T15:12:02.922Z,23.20
2022-12-22T15:14:38.267Z,20.97
2022-12-22T15:17:06.992Z,27.83
2022-12-22T15:19:35.410Z,25.37
2022-12-22T15:22:02.373Z,17.90
2022-12-22T15:24:29.479Z,27.50
2022-12-22T15:26:56.574Z,23.70
2022-12-22T15:29:23.327Z,29.40
2022-12-22T15:31:50.078Z,20.37
2022-12-22T15:34:24.595Z,14.13
2022-12-22T15:36:51.527Z,21.80
2022-12-22T15:39:19.932Z,27.20
2022-12-22T15:41:46.980Z,15.17
2022-12-22T15:44:14.265Z,18.70
2022-12-22T15:46:42.904Z,24.03
2022-12-22T15:49:14.839Z,37.47
2022-12-22T15:51:42.810Z,34.70
2022-12-22T15:54:13.663Z,25.77
2022-12-22T15:56:40.392Z,26.03
2022-12-22T15:59:11.661Z,19.07
2022-12-22T16:01:38.537Z,13.37
2022-12-22T16:04:05.582Z,12.40
2022-12-22T16:06:32.808Z,25.40
2022-12-22T16:09:00.238Z,19.47
2022-12-22T16:11:26.995Z,13.73
2022-12-22T16:13:53.859Z,22.03
2022-12-22T16:16:20.786Z,20.43
2022-12-22T16:18:47.539Z,13.90
2022-12-22T16:21:19.752Z,20.10
2022-12-22T16:23:48.296Z,20.87
2022-12-22T16:26:18.583Z,20.70
2022-12-22T16:28:45.306Z,16.50
2022-12-22T16:31:20.221Z,17.97
2022-12-22T16:33:47.432Z,14.87
2022-12-22T16:36:14.352Z,21.47
2022-12-22T16:38:41.475Z,14.77
2022-12-22T16:41:19.498Z,17.17
2022-12-22T16:43:49.079Z,16.57
2022-12-22T16:46:19.199Z,28.73
2022-12-22T16:48:49.164Z,23.73
2022-12-22T16:51:19.735Z,35.93
2022-12-22T16:53:46.544Z,28.97
2022-12-22T16:56:17.988Z,24.40
2022-12-22T16:58:45.509Z,22.53
2022-12-22T17:01:37.320Z,28.80
2022-12-22T17:04:30.776Z,19.90
2022-12-22T17:07:00.030Z,22.40
2022-12-22T17:09:32.562Z,16.37
2022-12-22T17:12:01.045Z,18.73
2022-12-22T17:14:34.253Z,15.97
2022-12-22T17:17:01.046Z,15.23
2022-12-22T17:19:27.886Z,16.03
2022-12-22T17:21:55.819Z,15.97
2022-12-22T17:24:28.211Z,13.70
2022-12-22T17:27:06.116Z,13.40
2022-12-22T17:29:33.119Z,14.10
2022-12-22T17:31:59.889Z,14.10
2022-12-22T17:34:26.716Z,14.77
2022-12-22T17:36:55.909Z,10.30
2022-12-22T17:39:23.351Z,12.73
2022-12-22T17:41:56.246Z,9.50
2022-12-22T17:44:25.271Z,19.30
2022-12-22T17:46:52.296Z,17.07
2022-12-22T17:49:22.276Z,15.07
2022-12-22T17:51:49.431Z,18.70
2022-12-22T17:54:23.239Z,18.23
2022-12-22T17:56:50.262Z,15.20
2022-12-22T17:59:17.099Z,10.17
2022-12-22T18:01:43.907Z,11.07
2022-12-22T18:04:10.958Z,13.20
2022-12-22T18:06:40.012Z,9.87
2022-12-22T18:09:07.808Z,11.27
2022-12-22T18:11:34.556Z,8.77
2022-12-22T18:14:01.514Z,14.10
2022-12-22T18:16:28.551Z,19.67
2022-12-22T18:18:55.482Z,24.27
2022-12-22T18:21:24.458Z,34.60
2022-12-22T18:23:51.738Z,36.33
2022-12-22T18:26:24.909Z,29.63
2022-12-22T18:28:51.879Z,27.20
2022-12-22T18:31:19.147Z,22.97
2022-12-22T18:33:46.084Z,19.03
2022-12-22T18:36:33.088Z,11.93
2022-12-22T18:39:00.999Z,18.40
2022-12-22T18:41:30.758Z,16.40
2022-12-22T18:43:57.548Z,12.80
2022-12-22T18:46:24.803Z,15.13
2022-12-22T18:48:51.542Z,16.37
2022-12-22T18:51:23.928Z,12.87
2022-12-22T18:53:52.539Z,13.33
2022-12-22T18:56:19.532Z,13.30
2022-12-22T18:58:46.395Z,17.67
2022-12-22T19:01:26.600Z,13.03
2022-12-22T19:03:55.763Z,12.73
2022-12-22T19:06:23.245Z,11.07
2022-12-22T19:08:51.062Z,11.43
2022-12-22T19:11:21.168Z,10.20
2022-12-22T19:13:49.606Z,8.83
2022-12-22T19:16:18.497Z,10.13
2022-12-22T19:18:45.136Z,13.17
2022-12-22T19:21:17.187Z,11.03
2022-12-22T19:23:44.585Z,18.53
2022-12-22T19:26:26.344Z,9.17
2022-12-22T19:28:56.048Z,9.97
2022-12-22T19:31:25.891Z,9.87
2022-12-22T19:33:53.235Z,6.33
2022-12-22T19:36:25.738Z,11.37
2022-12-22T19:39:02.745Z,12.20
2022-12-22T19:41:52.065Z,16.27
2022-12-22T19:44:24.404Z,15.43
2022-12-22T19:46:51.975Z,16.60
2022-12-22T19:49:21.224Z,16.50
2022-12-22T19:51:48.496Z,31.70
2022-12-22T19:54:15.190Z,16.23
2022-12-22T19:56:45.771Z,14.50
2022-12-22T19:59:26.891Z,18.57
2022-12-22T20:01:54.048Z,18.30
2022-12-22T20:04:20.829Z,18.63
2022-12-22T20:06:47.670Z,19.70
2022-12-22T20:09:14.273Z,15.80
2022-12-22T20:11:43.656Z,26.47
2022-12-22T20:14:18.112Z,25.03
2022-12-22T20:16:45.129Z,26.13
2022-12-22T20:19:15.201Z,17.40
2022-12-22T20:21:42.409Z,21.70
2022-12-22T20:24:18.682Z,32.23
2022-12-22T20:26:50.175Z,17.97
2022-12-22T20:29:20.317Z,17.83
2022-12-22T20:31:46.960Z,20.93
2022-12-22T20:34:13.700Z,23.13
2022-12-22T20:36:40.341Z,15.37
2022-12-22T20:39:12.619Z,22.63
2022-12-22T20:41:39.469Z,23.57
2022-12-22T20:44:06.180Z,20.07
2022-12-22T20:46:33.112Z,23.47
2022-12-22T20:49:01.890Z,56.57
2022-12-22T20:51:31.179Z,21.63
2022-12-22T20:53:58.533Z,18.90
2022-12-22T20:56:30.955Z,19.87
2022-12-22T20:58:59.186Z,17.53
2022-12-22T21:01:26.132Z,17.40
2022-12-22T21:03:53.022Z,16.10
2022-12-22T21:06:28.007Z,11.17
2022-12-22T21:08:56.026Z,18.00
2022-12-22T21:11:23.365Z,18.33
2022-12-22T21:13:50.452Z,30.47
2022-12-22T21:16:20.829Z,34.20
2022-12-22T21:18:47.483Z,68.90
2022-12-22T21:21:14.840Z,88.17
2022-12-22T21:23:41.539Z,32.07
2022-12-22T21:26:20.376Z,115.03
2022-12-22T21:28:47.264Z,25.07
2022-12-22T21:31:13.934Z,25.80
2022-12-22T21:33:40.728Z,19.23
2022-12-22T21:36:16.876Z,137.57
2022-12-22T21:38:43.573Z,92.80
2022-12-22T21:41:10.145Z,25.97
2022-12-22T21:43:36.903Z,50.90
2022-12-22T21:46:03.582Z,35.13
2022-12-22T21:48:30.353Z,164.13
2022-12-22T21:50:56.937Z,197.47
2022-12-22T21:53:23.509Z,91.73
2022-12-22T21:55:50.418Z,30.43
2022-12-22T21:58:17.061Z,32.93
2022-12-22T22:00:47.185Z,26.53
2022-12-22T22:03:15.333Z,154.30
2022-12-22T22:05:43.496Z,187.10
2022-12-22T22:08:11.846Z,98.13
2022-12-22T22:10:41.554Z,55.53
2022-12-22T22:13:08.250Z,83.13
2022-12-22T22:15:35.478Z,60.73
2022-12-22T22:18:06.915Z,48.53
2022-12-22T22:20:34.256Z,67.57
2022-12-22T22:23:01.013Z,72.37
2022-12-22T22:25:27.989Z,74.73
2022-12-22T22:27:59.514Z,40.63
2022-12-22T22:30:27.105Z,92.10
2022-12-22T22:32:54.926Z,149.00
2022-12-22T22:35:22.484Z,102.10
2022-12-22T22:37:52.845Z,80.13
2022-12-22T22:40:21.588Z,135.33
2022-12-22T22:42:48.307Z,62.80
2022-12-22T22:45:16.801Z,34.67
2022-12-22T22:47:43.423Z,35.07
2022-12-22T22:50:10.203Z,25.83
2022-12-22T22:52:37.010Z,48.57
2022-12-22T22:55:03.892Z,18.67
2022-12-22T22:57:30.461Z,21.10
2022-12-22T22:59:57.026Z,28.93
2022-12-22T23:02:24.033Z,16.80
2022-12-22T23:04:50.806Z,19.30
2022-12-22T23:07:17.546Z,25.80
2022-12-22T23:09:45.372Z,27.23
2022-12-22T23:12:12.099Z,16.97
2022-12-22T23:14:39.375Z,16.40
2022-12-22T23:17:06.069Z,28.17
2022-12-22T23:19:32.747Z,19.00
2022-12-22T23:21:59.412Z,18.20
2022-12-22T23:24:26.026Z,12.40
2022-12-22T23:26:52.836Z,12.80
2022-12-22T23:29:19.437Z,18.37
2022-12-22T23:31:46.085Z,17.23
2022-12-22T23:34:12.779Z,15.67
2022-12-22T23:36:39.392Z,15.00
2022-12-22T23:39:06.244Z,13.23
2022-12-22T23:41:32.938Z,14.97
2022-12-22T23:43:59.585Z,27.97
2022-12-22T23:46:26.170Z,48.20
2022-12-22T23:48:58.164Z,15.53
2022-12-22T23:51:27.371Z,19.90
2022-12-22T23:53:56.030Z,24.10
2022-12-22T23:56:23.307Z,13.60
2022-12-22T23:58:54.588Z,18.80
